Terminal Aerodrome Forecast
Issued by NWS

Home | Current Version | Previous Version | Text Only | Print | Product List | Glossary On
Versions: 1 2 3 4 5 6 7 8 9 10 11 12 13 14 15 16 17
000
FTUS42 KTAE 290700 AAA
TAFECP
TAF AMD
KECP 290715Z 2907/3006 17006KT 3SM -RA BR FEW009 BKN020 OVC070
     FM291000 27004KT 5SM -RA BR BKN003 OVC007
     FM291600 08005KT 6SM -RA BR SCT007 BKN015
     FM300400 01007KT 6SM -RA BR OVC007=

USA.gov is the U.S. government's official web portal to all federal, state and local government web resources and services.